createdAt,value
2018-11-05T00:00:38.614Z,115.17
2018-11-05T00:03:07.046Z,110.67
2018-11-05T00:05:35.339Z,114.13
2018-11-05T00:08:03.893Z,110.33
2018-11-05T00:10:32.311Z,111.57
2018-11-05T00:13:00.652Z,120.10
2018-11-05T00:15:28.802Z,116.13
2018-11-05T00:17:57.964Z,106.50
2018-11-05T00:20:27.391Z,108.53
2018-11-05T00:22:56.541Z,113.27
2018-11-05T00:25:26.451Z,110.00
2018-11-05T00:27:56.143Z,105.50
2018-11-05T00:30:25.057Z,102.27
2018-11-05T00:32:54.067Z,103.17
2018-11-05T00:35:23.828Z,97.93
2018-11-05T00:37:53.658Z,105.93
2018-11-05T00:40:22.416Z,98.23
2018-11-05T00:42:53.471Z,99.57
2018-11-05T00:45:27.639Z,93.33
2018-11-05T00:47:59.110Z,101.33
2018-11-05T00:50:28.410Z,102.10
2018-11-05T00:52:58.126Z,107.03
2018-11-05T00:55:27.570Z,103.63
2018-11-05T00:57:56.473Z,100.33
2018-11-05T01:00:25.048Z,103.60
2018-11-05T01:02:54.031Z,94.03
2018-11-05T01:05:22.857Z,96.10
2018-11-05T01:07:51.655Z,107.53
2018-11-05T01:10:20.325Z,96.37
2018-11-05T01:12:49.133Z,104.90
2018-11-05T01:15:18.178Z,104.47
2018-11-05T01:17:47.140Z,100.97
2018-11-05T01:20:16.506Z,102.77
2018-11-05T01:22:45.638Z,95.73
2018-11-05T01:25:14.377Z,94.50
2018-11-05T01:27:43.271Z,94.77
2018-11-05T01:30:13.471Z,103.73
2018-11-05T01:32:42.201Z,101.13
2018-11-05T01:35:12.498Z,86.27
2018-11-05T01:37:41.590Z,102.53
2018-11-05T01:40:12.010Z,94.60
2018-11-05T01:42:41.383Z,104.40
2018-11-05T01:45:11.289Z,97.80
2018-11-05T01:47:40.316Z,99.73
2018-11-05T01:50:15.378Z,94.50
2018-11-05T01:52:44.476Z,95.37
2018-11-05T01:55:13.883Z,97.10
2018-11-05T01:57:42.547Z,90.30
2018-11-05T02:00:12.941Z,88.17
2018-11-05T02:02:41.351Z,98.90
2018-11-05T02:05:11.186Z,100.27
2018-11-05T02:07:44.988Z,92.43
2018-11-05T02:12:49.532Z,92.33
2018-11-05T02:15:18.859Z,93.47
2018-11-05T02:17:47.881Z,88.43
2018-11-05T02:20:18.362Z,94.13
2018-11-05T02:22:48.532Z,98.37
2018-11-05T02:25:22.771Z,86.07
2018-11-05T02:27:53.938Z,95.43
2018-11-05T02:30:23.136Z,93.60
2018-11-05T02:32:56.602Z,95.20
2018-11-05T02:35:26.543Z,94.47
2018-11-05T02:37:55.188Z,96.97
2018-11-05T02:40:24.075Z,98.67
2018-11-05T02:42:52.801Z,99.83
2018-11-05T02:45:21.703Z,95.03
2018-11-05T02:47:50.769Z,91.50
2018-11-05T02:50:19.758Z,92.43
2018-11-05T02:52:48.589Z,89.43
2018-11-05T02:55:18.057Z,94.30
2018-11-05T02:57:51.380Z,92.13
2018-11-05T03:00:20.574Z,93.23
2018-11-05T03:02:50.186Z,89.03
2018-11-05T03:05:19.854Z,92.53
2018-11-05T03:07:53.110Z,83.93
2018-11-05T03:10:23.027Z,97.20
2018-11-05T03:12:51.810Z,90.70
2018-11-05T03:15:20.728Z,93.93
2018-11-05T03:17:49.533Z,94.73
2018-11-05T03:20:18.074Z,93.67
2018-11-05T03:22:47.407Z,103.63
2018-11-05T03:25:17.350Z,94.87
2018-11-05T03:27:46.521Z,96.33
2018-11-05T03:30:16.592Z,98.77
2018-11-05T03:32:46.355Z,96.87
2018-11-05T03:35:20.747Z,98.10
2018-11-05T03:37:50.597Z,97.03
2018-11-05T03:40:19.344Z,95.30
2018-11-05T03:42:49.164Z,101.70
2018-11-05T03:45:19.432Z,100.43
2018-11-05T03:47:48.803Z,97.87
2018-11-05T03:50:18.574Z,93.17
2018-11-05T03:52:52.283Z,94.97
2018-11-05T03:55:20.751Z,88.67
2018-11-05T03:57:49.198Z,87.20
2018-11-05T04:00:19.986Z,90.57
2018-11-05T04:02:48.539Z,87.80
2018-11-05T04:05:16.907Z,90.63
2018-11-05T04:07:45.532Z,90.40
2018-11-05T04:10:14.394Z,82.30
2018-11-05T04:12:42.731Z,86.77
2018-11-05T04:15:11.611Z,94.83
2018-11-05T04:17:42.148Z,85.37
2018-11-05T04:20:11.805Z,83.43
2018-11-05T04:22:40.310Z,88.77
2018-11-05T04:25:10.749Z,89.67
2018-11-05T04:27:39.456Z,83.83
2018-11-05T04:30:08.851Z,88.37
2018-11-05T04:32:37.334Z,90.47
2018-11-05T04:35:05.791Z,85.83
2018-11-05T04:37:35.258Z,86.90
2018-11-05T04:40:03.795Z,89.43
2018-11-05T04:42:32.277Z,82.03
2018-11-05T04:45:00.706Z,83.20
2018-11-05T04:47:29.124Z,91.03
2018-11-05T04:49:57.498Z,84.63
2018-11-05T04:52:25.950Z,84.40
2018-11-05T04:54:54.363Z,79.13
2018-11-05T04:57:22.603Z,90.60
2018-11-05T04:59:51.018Z,80.43
2018-11-05T05:02:19.504Z,87.63
2018-11-05T05:04:47.992Z,87.20
2018-11-05T05:07:16.666Z,90.27
2018-11-05T05:09:48.335Z,95.93
2018-11-05T05:12:17.948Z,83.53
2018-11-05T05:14:46.710Z,86.07
2018-11-05T05:17:16.203Z,84.63
2018-11-05T05:19:44.803Z,86.30
2018-11-05T05:22:14.145Z,88.57
2018-11-05T05:24:46.697Z,86.70
2018-11-05T05:27:17.370Z,88.47
2018-11-05T05:29:47.687Z,88.20
2018-11-05T05:32:24.188Z,84.67
2018-11-05T05:34:55.331Z,82.30
2018-11-05T05:40:36.649Z,81.70
2018-11-05T05:45:59.479Z,85.83
2018-11-05T05:56:40.091Z,83.67
2018-11-05T06:02:07.160Z,80.97
2018-11-05T06:04:37.101Z,86.37
2018-11-05T06:07:06.682Z,86.40
2018-11-05T06:09:38.004Z,80.00
2018-11-05T06:12:06.440Z,82.23
2018-11-05T06:14:35.749Z,80.80
2018-11-05T06:17:04.264Z,79.73
2018-11-05T06:19:32.737Z,79.37
2018-11-05T06:22:01.187Z,78.77
2018-11-05T06:24:29.402Z,74.37
2018-11-05T06:26:58.059Z,70.40
2018-11-05T06:29:34.371Z,73.47
2018-11-05T06:32:16.920Z,74.37
2018-11-05T06:34:45.344Z,78.60
2018-11-05T06:37:16.146Z,81.00
2018-11-05T06:39:59.467Z,72.20
2018-11-05T06:45:31.592Z,76.00
2018-11-05T06:48:06.011Z,75.37
2018-11-05T06:53:34.267Z,80.13
2018-11-05T06:59:05.678Z,81.67
2018-11-05T07:01:41.602Z,84.13
2018-11-05T07:04:10.950Z,75.67
2018-11-05T07:06:40.576Z,77.13
2018-11-05T07:09:10.796Z,79.87
2018-11-05T07:20:28.336Z,71.00
2018-11-05T07:23:07.066Z,78.63
2018-11-05T07:25:37.363Z,75.47
2018-11-05T07:40:56.323Z,76.63
2018-11-05T07:43:42.746Z,71.23
2018-11-05T07:46:35.562Z,67.20
2018-11-05T07:57:43.170Z,55.23
2018-11-05T08:02:54.716Z,63.77
2018-11-05T08:05:23.423Z,62.50
2018-11-05T08:07:54.587Z,61.50
2018-11-05T08:10:23.781Z,55.70
2018-11-05T08:12:53.413Z,57.67
2018-11-05T08:15:23.810Z,58.37
2018-11-05T08:17:52.528Z,57.50
2018-11-05T08:20:20.678Z,54.70
2018-11-05T08:22:48.776Z,59.50
2018-11-05T08:25:17.290Z,56.20
2018-11-05T08:27:45.394Z,51.40
2018-11-05T08:30:19.428Z,55.17
2018-11-05T08:32:47.736Z,56.17
2018-11-05T08:35:15.951Z,54.07
2018-11-05T08:37:45.166Z,57.73
2018-11-05T08:40:15.032Z,48.43
2018-11-05T08:42:43.651Z,51.27
2018-11-05T08:45:12.641Z,54.23
2018-11-05T08:47:40.854Z,46.20
2018-11-05T08:50:10.084Z,47.70
2018-11-05T08:52:38.482Z,49.83
2018-11-05T08:55:07.604Z,53.00
2018-11-05T08:57:35.862Z,53.47
2018-11-05T09:00:04.032Z,52.80
2018-11-05T09:02:32.360Z,49.50
2018-11-05T09:05:00.709Z,51.50
2018-11-05T09:07:28.960Z,49.43
2018-11-05T09:09:57.774Z,50.50
2018-11-05T09:12:26.019Z,51.60
2018-11-05T09:14:54.260Z,52.73
2018-11-05T09:17:22.455Z,51.93
2018-11-05T09:19:52.024Z,52.73
2018-11-05T09:22:21.399Z,50.87
2018-11-05T09:24:50.212Z,50.33
2018-11-05T09:27:22.497Z,50.30
2018-11-05T09:29:51.203Z,51.13
2018-11-05T09:32:20.747Z,53.33
2018-11-05T09:34:49.392Z,53.37
2018-11-05T09:37:23.097Z,50.93
2018-11-05T09:39:51.858Z,58.07
2018-11-05T09:42:20.359Z,50.43
2018-11-05T09:44:48.810Z,50.47
2018-11-05T09:47:17.355Z,52.70
2018-11-05T09:49:45.993Z,49.90
2018-11-05T09:52:14.383Z,46.87
2018-11-05T09:54:42.779Z,51.80
2018-11-05T09:57:11.287Z,45.27
2018-11-05T09:59:40.773Z,44.23
2018-11-05T10:02:09.366Z,50.73
2018-11-05T10:04:38.180Z,47.67
2018-11-05T10:07:08.067Z,50.37
2018-11-05T10:09:36.446Z,48.47
2018-11-05T10:12:17.869Z,51.83
2018-11-05T10:14:46.548Z,47.17
2018-11-05T10:17:15.239Z,49.83
2018-11-05T10:19:43.688Z,50.60
2018-11-05T10:22:13.170Z,48.90
2018-11-05T10:24:43.610Z,47.70
2018-11-05T10:27:12.133Z,47.03
2018-11-05T10:29:40.508Z,42.90
2018-11-05T10:32:08.953Z,49.43
2018-11-05T10:34:37.443Z,46.43
2018-11-05T10:37:05.898Z,47.10
2018-11-05T10:39:34.643Z,43.60
2018-11-05T10:42:03.060Z,44.00
2018-11-05T10:44:31.640Z,47.60
2018-11-05T10:47:00.309Z,44.43
2018-11-05T10:49:28.885Z,45.27
2018-11-05T10:51:57.677Z,44.43
2018-11-05T10:54:26.097Z,45.97
2018-11-05T10:56:54.566Z,44.40
2018-11-05T10:59:23.043Z,45.83
2018-11-05T11:01:56.811Z,43.30
2018-11-05T11:04:30.613Z,44.77
2018-11-05T11:06:59.091Z,48.70
2018-11-05T11:12:29.144Z,40.90
2018-11-05T11:14:59.288Z,44.17
2018-11-05T11:17:28.052Z,44.57
2018-11-05T11:19:58.159Z,44.60
2018-11-05T11:22:28.066Z,42.13
2018-11-05T11:24:56.299Z,43.43
2018-11-05T11:27:24.483Z,42.77
2018-11-05T11:29:54.925Z,43.40
2018-11-05T11:32:25.516Z,39.87
2018-11-05T11:34:53.643Z,42.43
2018-11-05T11:37:22.075Z,42.87
2018-11-05T11:39:50.202Z,39.93
2018-11-05T11:42:24.585Z,43.43
2018-11-05T11:44:53.034Z,41.00
2018-11-05T11:47:21.445Z,46.03
2018-11-05T11:49:49.779Z,40.50
2018-11-05T11:52:17.915Z,40.53
2018-11-05T11:54:46.074Z,39.50
2018-11-05T11:57:14.448Z,44.33
2018-11-05T11:59:42.597Z,40.43
2018-11-05T12:02:15.567Z,40.07
2018-11-05T12:04:44.118Z,40.33
2018-11-05T12:07:12.874Z,44.87
2018-11-05T12:09:41.161Z,40.77
2018-11-05T12:12:10.662Z,43.97
2018-11-05T12:14:38.924Z,38.90
2018-11-05T12:17:08.183Z,38.13
2018-11-05T12:19:36.661Z,38.93
2018-11-05T12:22:04.739Z,44.03
2018-11-05T12:24:32.929Z,40.03
2018-11-05T12:27:01.174Z,40.97
2018-11-05T12:29:29.308Z,37.30
2018-11-05T12:31:57.485Z,40.43
2018-11-05T12:34:25.773Z,38.60
2018-11-05T12:36:53.908Z,37.23
2018-11-05T12:39:22.231Z,39.70
2018-11-05T12:41:50.366Z,42.23
2018-11-05T12:44:18.740Z,37.17
2018-11-05T12:46:46.952Z,37.00
2018-11-05T12:49:15.348Z,40.90
2018-11-05T12:51:44.065Z,39.63
2018-11-05T12:54:12.319Z,38.20
2018-11-05T12:56:40.582Z,38.37
2018-11-05T12:59:08.791Z,38.57
2018-11-05T13:01:40.484Z,40.73
2018-11-05T13:04:08.835Z,43.40
2018-11-05T13:06:36.880Z,40.23
2018-11-05T13:09:06.802Z,38.53
2018-11-05T13:11:35.402Z,39.30
2018-11-05T13:14:03.914Z,36.00
2018-11-05T13:16:32.180Z,36.47
2018-11-05T13:19:00.544Z,31.53
2018-11-05T13:29:34.626Z,34.43
2018-11-05T13:32:03.470Z,36.67
2018-11-05T13:34:35.147Z,36.80
2018-11-05T13:37:11.452Z,39.03
2018-11-05T13:39:43.367Z,39.37
2018-11-05T13:42:12.010Z,39.97
2018-11-05T13:47:14.626Z,40.13
2018-11-05T13:52:37.168Z,47.70
2018-11-05T13:55:17.310Z,43.60
2018-11-05T13:57:55.149Z,47.57
2018-11-05T14:00:25.784Z,48.13
2018-11-05T14:02:54.357Z,51.93
2018-11-05T14:05:22.512Z,51.10
2018-11-05T14:07:50.874Z,57.37
2018-11-05T14:10:20.647Z,55.27
2018-11-05T14:12:49.650Z,59.80
2018-11-05T14:15:17.789Z,63.43
2018-11-05T14:17:46.424Z,62.87
2018-11-05T14:20:15.593Z,67.97
2018-11-05T14:22:44.083Z,70.07
2018-11-05T14:25:13.890Z,69.03
2018-11-05T14:27:43.723Z,67.50
2018-11-05T14:30:13.794Z,70.40
2018-11-05T14:32:44.648Z,72.57
2018-11-05T14:35:18.430Z,73.80
2018-11-05T15:07:02.165Z,94.90
2018-11-05T15:09:46.512Z,100.23
2018-11-05T15:12:16.510Z,99.33
2018-11-05T15:14:47.741Z,94.73
2018-11-05T15:17:16.381Z,101.40
2018-11-05T15:19:46.235Z,100.57
2018-11-05T15:22:15.105Z,99.80
2018-11-05T15:24:44.499Z,111.57
2018-11-05T15:27:13.968Z,107.00
2018-11-05T15:29:43.365Z,103.83
2018-11-05T15:32:12.637Z,99.53
2018-11-05T15:34:42.084Z,108.20
2018-11-05T15:37:10.839Z,100.60
2018-11-05T15:39:39.454Z,102.50
2018-11-05T15:42:08.389Z,104.43
2018-11-05T15:44:40.318Z,104.30
2018-11-05T15:47:10.690Z,107.80
2018-11-05T15:49:40.750Z,109.50
2018-11-05T15:52:10.439Z,116.27
2018-11-05T15:54:39.194Z,108.53
2018-11-05T15:57:09.608Z,114.47
2018-11-05T15:59:39.122Z,112.40
2018-11-05T16:02:13.288Z,106.97
2018-11-05T16:04:43.563Z,105.43
2018-11-05T16:07:13.892Z,103.57
2018-11-05T16:09:43.749Z,105.23
2018-11-05T16:12:12.283Z,110.27
2018-11-05T16:14:40.588Z,107.00
2018-11-05T16:17:08.728Z,110.53
2018-11-05T16:19:36.976Z,111.73
2018-11-05T16:22:05.198Z,110.13
2018-11-05T16:24:33.329Z,110.07
2018-11-05T16:27:01.524Z,108.17
2018-11-05T16:29:29.718Z,112.33
2018-11-05T16:31:57.840Z,107.40
2018-11-05T16:34:25.976Z,109.40
2018-11-05T16:37:11.744Z,114.73
2018-11-05T16:39:47.494Z,108.63
2018-11-05T16:42:15.893Z,115.93
2018-11-05T16:44:44.487Z,110.10
2018-11-05T16:47:13.479Z,118.33
2018-11-05T16:49:43.209Z,113.73
2018-11-05T16:52:12.723Z,111.07
2018-11-05T16:54:47.661Z,105.87
2018-11-05T16:59:56.293Z,109.87
2018-11-05T17:02:26.764Z,105.23
2018-11-05T17:04:59.346Z,107.37
2018-11-05T17:07:33.355Z,102.57
2018-11-05T17:10:08.694Z,101.53
2018-11-05T17:13:00.396Z,107.13
2018-11-05T17:15:46.610Z,108.23
2018-11-05T17:18:29.221Z,106.83
2018-11-05T17:21:02.287Z,106.57
2018-11-05T17:24:00.240Z,104.83
2018-11-05T17:38:07.084Z,109.00
2018-11-05T17:40:43.662Z,110.20
2018-11-05T17:43:13.304Z,102.50
2018-11-05T17:45:41.973Z,107.93
2018-11-05T17:48:10.621Z,111.47
2018-11-05T17:50:39.317Z,114.43
2018-11-05T17:53:07.929Z,107.97
2018-11-05T17:55:36.503Z,105.40
2018-11-05T17:58:05.841Z,106.93
2018-11-05T18:00:34.151Z,110.00
2018-11-05T18:03:03.212Z,112.87
2018-11-05T18:05:31.481Z,106.93
2018-11-05T18:07:59.646Z,110.80
2018-11-05T18:10:30.766Z,113.10
2018-11-05T18:13:00.319Z,113.27
2018-11-05T18:15:28.764Z,107.17
2018-11-05T18:17:57.469Z,107.07
2018-11-05T18:20:25.708Z,107.93
2018-11-05T18:22:54.172Z,112.00
2018-11-05T18:25:22.595Z,104.07
2018-11-05T18:27:51.083Z,113.67
2018-11-05T18:30:24.118Z,112.83
2018-11-05T18:32:52.840Z,118.67
2018-11-05T18:35:21.630Z,112.93
2018-11-05T18:37:50.614Z,110.83
2018-11-05T18:40:18.900Z,113.70
2018-11-05T18:42:47.972Z,118.63
2018-11-05T18:45:16.390Z,115.83
2018-11-05T18:47:46.375Z,110.13
2018-11-05T18:50:16.930Z,116.37
2018-11-05T18:52:46.351Z,110.80
2018-11-05T18:55:18.299Z,104.70
2018-11-05T18:57:56.510Z,106.27
2018-11-05T19:00:25.897Z,114.83
2018-11-05T19:02:55.168Z,105.00
2018-11-05T19:05:24.615Z,114.07
2018-11-05T19:07:52.925Z,122.67
2018-11-05T19:10:21.382Z,117.63
2018-11-05T19:12:50.651Z,121.57
2018-11-05T19:15:19.164Z,111.63
2018-11-05T19:17:48.162Z,110.63
2018-11-05T19:20:17.952Z,124.00
2018-11-05T19:22:47.713Z,118.63
2018-11-05T19:25:19.738Z,127.23
2018-11-05T19:27:48.627Z,122.17
2018-11-05T19:30:19.028Z,127.77
2018-11-05T19:32:48.469Z,124.33
2018-11-05T19:35:17.456Z,129.00
2018-11-05T19:37:46.363Z,127.67
2018-11-05T19:40:15.742Z,131.00
2018-11-05T19:42:45.228Z,130.20
2018-11-05T19:45:14.975Z,127.60
2018-11-05T19:47:43.902Z,128.03
2018-11-05T19:50:23.188Z,130.53
2018-11-05T19:52:52.403Z,124.47
2018-11-05T19:55:22.234Z,129.93
2018-11-05T19:57:55.670Z,123.63
2018-11-05T20:00:27.037Z,122.77
2018-11-05T20:02:56.865Z,127.37
2018-11-05T20:05:26.833Z,124.53
2018-11-05T20:07:56.632Z,140.83
2018-11-05T20:10:25.009Z,137.83
2018-11-05T20:12:54.315Z,131.17
2018-11-05T20:15:23.841Z,123.23
2018-11-05T20:17:53.351Z,130.27
2018-11-05T20:20:22.736Z,135.80
2018-11-05T20:22:51.692Z,129.20
2018-11-05T20:25:19.914Z,135.67
2018-11-05T20:27:48.098Z,138.17
2018-11-05T20:30:18.212Z,148.47
2018-11-05T20:32:49.557Z,148.77
2018-11-05T20:35:18.961Z,140.57
2018-11-05T20:37:52.230Z,141.77
2018-11-05T20:40:27.695Z,130.40
2018-11-05T20:42:57.341Z,130.77
2018-11-05T20:45:26.559Z,132.00
2018-11-05T20:47:56.003Z,126.90
2018-11-05T20:50:25.423Z,133.00
2018-11-05T20:52:53.666Z,137.70
2018-11-05T20:55:22.772Z,132.60
2018-11-05T20:57:51.193Z,138.63
2018-11-05T21:00:21.197Z,146.60
2018-11-05T21:02:50.251Z,135.73
2018-11-05T21:05:18.539Z,128.30
2018-11-05T21:07:47.337Z,133.37
2018-11-05T21:10:17.922Z,141.00
2018-11-05T21:12:46.548Z,139.40
2018-11-05T21:15:17.357Z,142.57
2018-11-05T21:17:46.963Z,130.90
2018-11-05T21:20:15.478Z,138.30
2018-11-05T21:22:44.318Z,138.93
2018-11-05T21:25:12.326Z,148.47
2018-11-05T21:27:44.812Z,136.33
2018-11-05T21:30:14.675Z,151.30
2018-11-05T21:32:42.857Z,134.87
2018-11-05T21:35:12.948Z,138.67
2018-11-05T21:37:41.439Z,160.13
2018-11-05T21:40:11.336Z,152.20
2018-11-05T21:42:39.470Z,149.07
2018-11-05T21:45:08.474Z,140.63
2018-11-05T21:47:37.028Z,138.53
2018-11-05T21:50:06.662Z,152.80
2018-11-05T21:52:34.606Z,138.07
2018-11-05T21:55:02.850Z,143.60
2018-11-05T21:57:31.042Z,134.60
2018-11-05T21:59:59.403Z,134.43
2018-11-05T22:02:27.591Z,140.07
2018-11-05T22:04:55.900Z,143.60
2018-11-05T22:07:24.162Z,139.03
2018-11-05T22:09:52.418Z,133.60
2018-11-05T22:12:20.877Z,136.27
2018-11-05T22:14:48.960Z,140.63
2018-11-05T22:17:17.117Z,140.50
2018-11-05T22:19:45.606Z,152.70
2018-11-05T22:22:13.784Z,144.77
2018-11-05T22:24:41.882Z,153.07
2018-11-05T22:27:10.111Z,177.23
2018-11-05T22:29:38.308Z,172.60
2018-11-05T22:32:06.504Z,172.07
2018-11-05T22:34:34.858Z,162.83
2018-11-05T22:37:02.967Z,150.50
2018-11-05T22:39:31.054Z,153.47
2018-11-05T22:41:59.260Z,139.27
2018-11-05T22:44:27.383Z,144.67
2018-11-05T22:46:55.579Z,150.40
2018-11-05T22:49:23.684Z,140.97
2018-11-05T22:51:52.037Z,135.87
2018-11-05T22:54:20.133Z,142.50
2018-11-05T22:56:48.250Z,143.50
2018-11-05T22:59:16.386Z,147.90
2018-11-05T23:01:51.029Z,146.70
2018-11-05T23:04:19.300Z,147.33
2018-11-05T23:06:47.593Z,142.03
2018-11-05T23:09:15.779Z,147.10
2018-11-05T23:11:53.201Z,132.83
2018-11-05T23:14:21.339Z,140.47
2018-11-05T23:16:49.452Z,144.10
2018-11-05T23:19:17.542Z,139.13
2018-11-05T23:21:48.174Z,138.50
2018-11-05T23:24:16.351Z,143.00
2018-11-05T23:26:49.477Z,128.27
2018-11-05T23:29:17.619Z,130.23
2018-11-05T23:31:45.695Z,128.43
2018-11-05T23:34:14.487Z,136.50
2018-11-05T23:36:46.183Z,130.47
2018-11-05T23:39:25.796Z,121.57
2018-11-05T23:41:56.866Z,121.73
2018-11-05T23:44:27.452Z,112.63
2018-11-05T23:46:55.587Z,135.37
2018-11-05T23:49:23.688Z,123.30
2018-11-05T23:51:51.968Z,130.00
2018-11-05T23:54:19.956Z,125.40
2018-11-05T23:56:48.188Z,129.70
2018-11-05T23:59:16.480Z,125.60
